createdAt,value
2023-05-25T00:01:02.669Z,8.97
2023-05-25T00:02:25.949Z,9.11
2023-05-25T00:03:49.549Z,9.08
2023-05-25T00:05:12.061Z,9.01
2023-05-25T00:06:37.432Z,9.05
2023-05-25T00:08:00.353Z,8.78
2023-05-25T00:09:22.332Z,8.75
2023-05-25T00:10:45.167Z,8.81
2023-05-25T00:12:08.855Z,8.92
2023-05-25T00:13:31.706Z,8.59
2023-05-25T00:14:54.526Z,8.16
2023-05-25T00:16:17.766Z,8.08
2023-05-25T00:17:41.125Z,8.42
2023-05-25T00:19:03.851Z,8.13
2023-05-25T00:20:26.972Z,8.40
2023-05-25T00:21:48.972Z,8.41
2023-05-25T00:23:11.829Z,8.60
2023-05-25T00:24:34.638Z,8.64
2023-05-25T00:25:57.531Z,8.71
2023-05-25T00:27:19.377Z,8.94
2023-05-25T00:28:42.244Z,9.05
2023-05-25T00:30:05.826Z,9.16
2023-05-25T00:31:29.799Z,9.05
2023-05-25T00:32:54.068Z,8.75
2023-05-25T00:34:17.472Z,8.18
2023-05-25T00:35:42.679Z,8.09
2023-05-25T00:37:06.021Z,8.00
2023-05-25T00:38:27.878Z,7.80
2023-05-25T00:39:50.743Z,8.06
2023-05-25T00:41:13.243Z,8.00
2023-05-25T00:42:36.240Z,8.22
2023-05-25T00:43:59.059Z,8.28
2023-05-25T00:45:21.202Z,8.14
2023-05-25T00:46:49.728Z,8.29
2023-05-25T00:48:12.538Z,8.48
2023-05-25T00:49:36.868Z,8.41
2023-05-25T00:51:00.794Z,8.27
2023-05-25T00:52:22.744Z,8.27
2023-05-25T00:53:45.611Z,8.32
2023-05-25T00:55:11.869Z,7.99
2023-05-25T00:56:41.187Z,7.63
2023-05-25T00:58:04.609Z,7.31
2023-05-25T00:59:36.040Z,7.11
2023-05-25T01:01:00.941Z,7.54
2023-05-25T01:02:27.020Z,7.31
2023-05-25T01:03:53.853Z,7.02
2023-05-25T01:05:18.387Z,7.29
2023-05-25T01:06:44.018Z,7.26
2023-05-25T01:08:08.679Z,7.56
2023-05-25T01:09:34.478Z,7.56
2023-05-25T01:10:58.449Z,7.76
2023-05-25T01:12:23.561Z,7.91
2023-05-25T01:13:46.305Z,8.18
2023-05-25T01:15:10.795Z,8.21
2023-05-25T01:16:32.986Z,8.13
2023-05-25T01:17:59.737Z,7.92
2023-05-25T01:19:21.930Z,8.12
2023-05-25T01:20:58.719Z,8.08
2023-05-25T01:22:28.257Z,7.75
2023-05-25T01:23:56.225Z,7.88
2023-05-25T01:25:23.812Z,7.99
2023-05-25T01:26:51.842Z,8.08
2023-05-25T01:28:19.575Z,7.98
2023-05-25T01:29:44.567Z,8.04
2023-05-25T01:31:08.693Z,8.21
2023-05-25T01:32:32.444Z,8.30
2023-05-25T01:33:57.236Z,8.05
2023-05-25T01:35:20.633Z,8.17
2023-05-25T01:36:44.862Z,8.22
2023-05-25T01:38:08.324Z,7.95
2023-05-25T01:39:31.191Z,7.86
2023-05-25T01:40:54.090Z,7.94
2023-05-25T01:42:16.925Z,7.94
2023-05-25T01:43:38.875Z,8.05
2023-05-25T01:45:02.359Z,7.95
2023-05-25T01:46:32.141Z,8.08
2023-05-25T01:48:03.635Z,7.92
2023-05-25T01:49:31.602Z,8.06
2023-05-25T01:50:59.202Z,7.99
2023-05-25T01:52:27.308Z,7.92
2023-05-25T01:53:55.520Z,8.15
2023-05-25T01:55:21.203Z,8.26
2023-05-25T01:56:46.735Z,8.31
2023-05-25T01:58:10.434Z,8.25
2023-05-25T01:59:34.198Z,8.12
2023-05-25T02:00:58.674Z,7.96
2023-05-25T02:02:21.101Z,8.11
2023-05-25T02:03:45.106Z,7.98
2023-05-25T02:05:08.862Z,7.98
2023-05-25T02:06:30.979Z,7.93
2023-05-25T02:07:55.479Z,7.93
2023-05-25T02:09:18.337Z,7.86
2023-05-25T02:10:41.183Z,7.83
2023-05-25T02:12:04.973Z,7.98
2023-05-25T02:13:27.902Z,8.03
2023-05-25T02:14:50.981Z,7.80
2023-05-25T02:16:12.889Z,7.97
2023-05-25T02:17:37.206Z,7.65
2023-05-25T02:18:59.301Z,7.60
2023-05-25T02:20:22.428Z,7.92
2023-05-25T02:21:44.395Z,7.88
2023-05-25T02:23:08.562Z,7.27
2023-05-25T02:24:31.389Z,7.44
2023-05-25T02:25:53.461Z,7.53
2023-05-25T02:27:16.374Z,7.68
2023-05-25T02:28:38.249Z,7.94
2023-05-25T02:30:01.071Z,8.15
2023-05-25T02:31:23.017Z,8.19
2023-05-25T02:32:46.097Z,8.29
2023-05-25T02:34:08.139Z,8.37
2023-05-25T02:35:30.978Z,8.08
2023-05-25T02:36:53.837Z,7.99
2023-05-25T02:38:17.093Z,8.02
2023-05-25T02:39:40.547Z,7.74
2023-05-25T02:41:03.348Z,7.92
2023-05-25T02:42:25.220Z,8.05
2023-05-25T02:43:48.123Z,7.91
2023-05-25T02:45:12.070Z,7.60
2023-05-25T02:46:34.102Z,7.74
2023-05-25T02:47:57.079Z,7.92
2023-05-25T02:49:20.192Z,7.89
2023-05-25T02:50:43.270Z,7.77
2023-05-25T02:52:06.145Z,7.76
2023-05-25T02:53:30.294Z,7.82
2023-05-25T02:54:52.234Z,7.89
2023-05-25T02:56:15.049Z,7.86
2023-05-25T02:57:37.191Z,7.71
2023-05-25T02:58:59.990Z,7.84
2023-05-25T03:00:21.853Z,7.96
2023-05-25T03:01:44.663Z,7.93
2023-05-25T03:03:06.738Z,8.09
2023-05-25T03:04:31.219Z,8.13
2023-05-25T03:05:53.327Z,8.00
2023-05-25T03:07:16.388Z,8.06
2023-05-25T03:08:41.164Z,7.94
2023-05-25T03:10:03.532Z,7.96
2023-05-25T03:11:26.884Z,7.78
2023-05-25T03:12:48.763Z,7.74
2023-05-25T03:14:13.148Z,7.75
2023-05-25T03:15:35.998Z,7.80
2023-05-25T03:16:57.932Z,7.89
2023-05-25T03:18:20.752Z,7.72
2023-05-25T03:19:43.972Z,7.85
2023-05-25T03:21:07.223Z,7.58
2023-05-25T03:22:29.125Z,7.79
2023-05-25T03:23:53.460Z,7.87
2023-05-25T03:25:15.544Z,7.84
2023-05-25T03:26:38.413Z,7.89
2023-05-25T03:28:01.928Z,7.87
2023-05-25T03:29:23.799Z,8.01
2023-05-25T03:30:47.463Z,7.84
2023-05-25T03:32:09.372Z,7.99
2023-05-25T03:33:33.346Z,8.04
2023-05-25T03:34:55.368Z,7.96
2023-05-25T03:36:18.305Z,7.97
2023-05-25T03:37:40.336Z,7.97
2023-05-25T03:39:04.659Z,8.04
2023-05-25T03:40:26.794Z,8.05
2023-05-25T03:41:49.955Z,8.19
2023-05-25T03:43:12.773Z,8.19
2023-05-25T03:44:34.673Z,8.26
2023-05-25T03:45:57.477Z,8.39
2023-05-25T03:47:20.344Z,7.97
2023-05-25T03:48:43.248Z,8.15
2023-05-25T03:50:07.072Z,8.26
2023-05-25T03:51:29.920Z,8.18
2023-05-25T03:52:52.740Z,8.20
2023-05-25T03:54:16.833Z,8.37
2023-05-25T03:58:22.124Z,8.61
2023-05-25T03:59:44.954Z,8.30
2023-05-25T04:01:09.723Z,8.52
2023-05-25T04:02:32.803Z,8.56
2023-05-25T04:03:54.912Z,8.64
2023-05-25T04:05:17.876Z,8.71
2023-05-25T04:06:40.151Z,8.74
2023-05-25T04:08:03.347Z,8.75
2023-05-25T04:09:27.515Z,8.78
2023-05-25T04:10:50.408Z,8.90
2023-05-25T04:12:12.286Z,8.98
2023-05-25T04:13:36.407Z,8.86
2023-05-25T04:14:59.335Z,8.82
2023-05-25T04:16:21.862Z,8.94
2023-05-25T04:17:45.109Z,9.09
2023-05-25T04:19:08.033Z,9.12
2023-05-25T04:20:31.188Z,9.22
2023-05-25T04:21:54.095Z,9.16
2023-05-25T04:23:17.555Z,9.25
2023-05-25T04:24:42.227Z,9.26
2023-05-25T04:26:05.987Z,9.38
2023-05-25T04:27:28.832Z,9.47
2023-05-25T04:28:51.974Z,9.34
2023-05-25T04:30:15.041Z,9.49
2023-05-25T04:31:37.051Z,9.46
2023-05-25T04:33:02.853Z,9.46
2023-05-25T04:34:26.196Z,9.60
2023-05-25T04:35:50.513Z,9.81
2023-05-25T04:37:13.318Z,9.82
2023-05-25T04:38:36.168Z,9.93
2023-05-25T04:40:01.623Z,10.00
2023-05-25T04:41:25.835Z,9.89
2023-05-25T04:42:49.197Z,10.02
2023-05-25T04:44:13.929Z,9.84
2023-05-25T04:45:37.118Z,9.88
2023-05-25T04:47:01.255Z,10.09
2023-05-25T04:48:24.565Z,10.12
2023-05-25T04:49:47.394Z,10.28
2023-05-25T04:51:10.342Z,10.42
2023-05-25T04:52:32.583Z,10.53
2023-05-25T04:53:55.851Z,10.62
2023-05-25T04:55:20.066Z,10.63
2023-05-25T04:56:42.951Z,10.78
2023-05-25T04:58:06.252Z,10.91
2023-05-25T04:59:29.234Z,11.00
2023-05-25T05:00:52.608Z,10.99
2023-05-25T05:02:15.649Z,11.11
2023-05-25T05:03:38.513Z,10.99
2023-05-25T05:05:00.402Z,11.03
2023-05-25T05:06:25.747Z,11.01
2023-05-25T05:07:48.682Z,10.78
2023-05-25T05:09:11.735Z,10.88
2023-05-25T05:10:35.920Z,10.67
2023-05-25T05:11:57.824Z,10.83
2023-05-25T05:13:20.819Z,10.58
2023-05-25T05:14:43.718Z,10.91
2023-05-25T05:16:06.572Z,10.92
2023-05-25T05:17:30.788Z,10.97
2023-05-25T05:18:53.827Z,10.98
2023-05-25T05:20:16.892Z,11.25
2023-05-25T05:21:39.137Z,11.28
2023-05-25T05:23:01.963Z,10.79
2023-05-25T05:24:23.888Z,10.60
2023-05-25T05:25:48.348Z,10.89
2023-05-25T05:27:10.739Z,11.01
2023-05-25T05:28:33.864Z,11.16
2023-05-25T05:29:56.890Z,11.42
2023-05-25T05:31:20.054Z,11.66
2023-05-25T05:32:45.955Z,11.43
2023-05-25T05:34:08.588Z,11.61
2023-05-25T05:35:32.220Z,11.82
2023-05-25T05:36:58.622Z,11.94
2023-05-25T05:38:22.167Z,11.85
2023-05-25T05:39:44.109Z,11.62
2023-05-25T05:41:13.377Z,11.70
2023-05-25T05:42:35.291Z,11.90
2023-05-25T05:43:58.806Z,12.08
2023-05-25T05:45:21.624Z,12.16
2023-05-25T05:46:43.849Z,12.18
2023-05-25T05:48:09.834Z,12.07
2023-05-25T05:49:34.441Z,12.12
2023-05-25T05:50:57.306Z,12.01
2023-05-25T05:52:19.192Z,11.87
2023-05-25T05:53:42.237Z,11.99
2023-05-25T05:55:04.574Z,12.18
2023-05-25T05:56:28.762Z,12.20
2023-05-25T05:57:51.609Z,12.36
2023-05-25T05:59:14.665Z,12.52
2023-05-25T06:00:37.627Z,12.67
2023-05-25T06:01:59.771Z,12.75
2023-05-25T06:03:23.364Z,12.82
2023-05-25T06:04:46.184Z,12.95
2023-05-25T06:06:09.198Z,12.94
2023-05-25T06:07:34.975Z,12.87
2023-05-25T06:08:57.826Z,13.02
2023-05-25T06:10:19.735Z,13.19
2023-05-25T06:11:43.988Z,13.25
2023-05-25T06:13:07.859Z,13.22
2023-05-25T06:14:30.684Z,13.22
2023-05-25T06:15:53.492Z,13.32
2023-05-25T06:17:16.442Z,13.46
2023-05-25T06:18:39.351Z,13.42
2023-05-25T06:20:01.325Z,13.53
2023-05-25T06:21:24.182Z,13.50
2023-05-25T06:22:47.013Z,13.48
2023-05-25T06:24:09.895Z,13.56
2023-05-25T06:25:32.809Z,13.72
2023-05-25T06:26:56.998Z,13.89
2023-05-25T06:28:19.785Z,14.06
2023-05-25T06:29:42.592Z,14.07
2023-05-25T06:31:06.156Z,14.16
2023-05-25T06:32:29.039Z,14.24
2023-05-25T06:33:51.882Z,14.34
2023-05-25T06:35:19.563Z,14.32
2023-05-25T06:36:42.437Z,14.41
2023-05-25T06:38:05.267Z,14.48
2023-05-25T06:39:28.088Z,14.78
2023-05-25T06:40:50.926Z,14.80
2023-05-25T06:42:15.083Z,14.79
2023-05-25T06:43:37.870Z,14.88
2023-05-25T06:45:00.793Z,14.89
2023-05-25T06:46:23.656Z,14.95
2023-05-25T06:47:46.516Z,14.73
2023-05-25T06:49:09.396Z,14.90
2023-05-25T06:50:32.586Z,14.62
2023-05-25T06:51:55.851Z,14.62
2023-05-25T06:53:18.674Z,14.79
2023-05-25T06:54:41.554Z,14.86
2023-05-25T06:56:04.694Z,15.00
2023-05-25T06:57:28.823Z,15.11
2023-05-25T06:58:52.070Z,15.23
2023-05-25T07:00:16.530Z,15.13
2023-05-25T07:01:39.378Z,15.23
2023-05-25T07:03:02.711Z,15.28
2023-05-25T07:04:25.641Z,15.27
2023-05-25T07:05:48.549Z,15.39
2023-05-25T07:07:12.650Z,15.50
2023-05-25T07:08:36.292Z,15.42
2023-05-25T07:09:59.404Z,15.45
2023-05-25T07:11:23.337Z,14.63
2023-05-25T07:12:47.520Z,14.87
2023-05-25T07:14:10.667Z,15.09
2023-05-25T07:15:33.473Z,15.33
2023-05-25T07:16:56.254Z,15.57
2023-05-25T07:18:18.581Z,15.66
2023-05-25T07:19:43.218Z,15.74
2023-05-25T07:21:06.858Z,15.55
2023-05-25T07:22:29.696Z,15.38
2023-05-25T07:23:52.587Z,15.72
2023-05-25T07:25:15.770Z,15.96
2023-05-25T07:26:38.603Z,15.93
2023-05-25T07:28:02.858Z,16.16
2023-05-25T07:29:26.278Z,15.59
2023-05-25T07:30:49.325Z,15.34
2023-05-25T07:32:12.210Z,15.25
2023-05-25T07:33:35.043Z,14.88
2023-05-25T07:34:58.283Z,15.10
2023-05-25T07:36:21.099Z,14.93
2023-05-25T07:37:44.159Z,14.72
2023-05-25T07:39:08.595Z,14.96
2023-05-25T07:40:31.614Z,15.51
2023-05-25T07:41:54.565Z,15.91
2023-05-25T07:43:18.802Z,16.12
2023-05-25T07:44:41.610Z,16.30
2023-05-25T07:46:03.529Z,16.51
2023-05-25T07:47:26.869Z,16.61
2023-05-25T07:48:50.044Z,16.78
2023-05-25T07:50:13.049Z,16.84
2023-05-25T07:51:35.884Z,17.08
2023-05-25T07:52:59.852Z,16.71
2023-05-25T07:54:21.789Z,16.90
2023-05-25T07:55:44.951Z,16.63
2023-05-25T07:57:08.258Z,16.50
2023-05-25T07:58:31.479Z,16.28
2023-05-25T07:59:54.375Z,16.54
2023-05-25T08:01:17.396Z,16.57
2023-05-25T08:02:41.011Z,16.75
2023-05-25T08:04:03.987Z,16.68
2023-05-25T08:05:26.880Z,16.86
2023-05-25T08:06:49.801Z,16.83
2023-05-25T08:08:14.271Z,16.69
2023-05-25T08:09:37.195Z,16.86
2023-05-25T08:11:00.114Z,17.02
2023-05-25T08:12:38.483Z,16.72
2023-05-25T08:14:07.145Z,16.49
2023-05-25T08:15:30.017Z,16.46
2023-05-25T08:16:52.996Z,16.42
2023-05-25T08:18:16.052Z,16.31
2023-05-25T08:19:39.071Z,15.57
2023-05-25T08:21:02.069Z,15.28
2023-05-25T08:22:24.901Z,15.50
2023-05-25T08:23:46.902Z,15.86
2023-05-25T08:25:11.175Z,16.19
2023-05-25T08:26:52.997Z,16.45
2023-05-25T08:28:17.488Z,16.47
2023-05-25T08:29:41.907Z,16.11
2023-05-25T08:31:04.826Z,15.83
2023-05-25T08:32:27.788Z,16.08
2023-05-25T08:33:50.679Z,16.20
2023-05-25T08:35:14.112Z,16.38
2023-05-25T08:36:37.964Z,16.27
2023-05-25T08:38:00.838Z,15.74
2023-05-25T08:39:23.763Z,15.76
2023-05-25T08:40:46.691Z,16.25
2023-05-25T08:42:10.225Z,16.48
2023-05-25T08:43:33.783Z,16.90
2023-05-25T08:44:58.786Z,17.11
2023-05-25T08:46:31.048Z,17.27
2023-05-25T08:47:59.237Z,17.30
2023-05-25T08:49:24.006Z,17.32
2023-05-25T08:50:49.498Z,17.27
2023-05-25T08:52:15.998Z,17.63
2023-05-25T08:53:39.974Z,17.94
2023-05-25T08:55:06.302Z,18.03
2023-05-25T08:56:36.911Z,17.88
2023-05-25T08:58:07.873Z,17.65
2023-05-25T08:59:36.530Z,17.78
2023-05-25T09:01:06.564Z,17.70
2023-05-25T09:02:35.968Z,17.67
2023-05-25T09:04:01.116Z,17.71
2023-05-25T09:05:25.522Z,17.74
2023-05-25T09:06:57.270Z,17.90
2023-05-25T09:08:29.327Z,18.06
2023-05-25T09:09:52.979Z,18.23
2023-05-25T09:11:19.412Z,18.40
2023-05-25T09:12:54.875Z,18.68
2023-05-25T09:14:17.973Z,18.90
2023-05-25T09:15:40.968Z,19.19
2023-05-25T09:17:05.643Z,18.74
2023-05-25T09:18:28.666Z,18.67
2023-05-25T09:19:51.979Z,18.39
2023-05-25T09:21:14.858Z,18.20
2023-05-25T09:22:38.023Z,18.68
2023-05-25T09:24:01.511Z,19.12
2023-05-25T09:25:26.325Z,19.49
2023-05-25T09:26:49.638Z,19.62
2023-05-25T09:29:38.287Z,19.49
2023-05-25T09:31:01.216Z,19.61
2023-05-25T09:32:26.169Z,19.20
2023-05-25T09:33:49.201Z,18.96
2023-05-25T09:35:14.545Z,18.76
2023-05-25T09:36:41.175Z,18.45
2023-05-25T09:38:04.191Z,18.87
2023-05-25T09:39:27.291Z,18.69
2023-05-25T09:40:50.329Z,18.55
2023-05-25T09:42:13.239Z,18.72
2023-05-25T09:43:41.931Z,18.22
2023-05-25T09:45:10.360Z,18.44
2023-05-25T09:46:36.898Z,18.44
2023-05-25T09:48:01.243Z,18.02
2023-05-25T09:49:24.237Z,18.02
2023-05-25T09:50:49.588Z,18.03
2023-05-25T09:52:13.430Z,18.17
2023-05-25T09:53:36.507Z,18.37
2023-05-25T09:54:59.456Z,18.68
2023-05-25T09:56:23.853Z,18.65
2023-05-25T09:57:47.003Z,18.58
2023-05-25T09:59:09.891Z,18.91
2023-05-25T10:00:32.846Z,19.29
2023-05-25T10:01:56.042Z,19.53
2023-05-25T10:03:21.841Z,19.96
2023-05-25T10:04:46.361Z,20.10
2023-05-25T10:06:09.574Z,20.22
2023-05-25T10:07:34.520Z,20.38
2023-05-25T10:08:58.768Z,20.43
2023-05-25T10:10:21.625Z,20.16
2023-05-25T10:11:44.861Z,19.85
2023-05-25T10:13:09.933Z,19.78
2023-05-25T10:14:36.622Z,20.38
2023-05-25T10:16:01.020Z,20.13
2023-05-25T10:17:25.445Z,18.68
2023-05-25T10:18:55.679Z,18.87
2023-05-25T10:20:18.718Z,18.84
2023-05-25T10:21:43.498Z,19.12
2023-05-25T10:23:11.492Z,19.13
2023-05-25T10:24:39.298Z,19.56
2023-05-25T10:26:04.561Z,19.97
2023-05-25T10:27:38.550Z,20.14
2023-05-25T10:29:04.338Z,20.26
2023-05-25T10:30:28.289Z,20.54
2023-05-25T10:31:52.217Z,20.41
2023-05-25T10:33:15.325Z,20.21
2023-05-25T10:34:39.669Z,20.32
2023-05-25T10:36:10.576Z,20.38
2023-05-25T10:37:35.198Z,20.49
2023-05-25T10:38:59.523Z,20.71
2023-05-25T10:40:23.417Z,20.63
2023-05-25T10:41:47.540Z,20.89
2023-05-25T10:43:10.419Z,21.17
2023-05-25T10:44:33.808Z,21.57
2023-05-25T10:45:58.046Z,21.83
2023-05-25T10:47:21.898Z,22.47
2023-05-25T10:48:47.849Z,21.78
2023-05-25T10:50:22.654Z,21.65
2023-05-25T10:51:59.080Z,21.52
2023-05-25T10:53:22.251Z,21.08
2023-05-25T10:54:44.487Z,20.79
2023-05-25T10:56:09.962Z,20.70
2023-05-25T10:57:49.506Z,20.21
2023-05-25T10:59:14.696Z,20.33
2023-05-25T11:00:37.724Z,20.68
2023-05-25T11:02:09.374Z,21.01
2023-05-25T11:03:54.687Z,22.11
2023-05-25T11:05:39.291Z,22.72
2023-05-25T11:07:08.511Z,23.04
2023-05-25T11:08:50.176Z,23.01
2023-05-25T11:10:15.948Z,22.00
2023-05-25T11:12:03.656Z,20.59
2023-05-25T11:13:40.589Z,20.88
2023-05-25T11:15:15.053Z,20.51
2023-05-25T11:16:40.215Z,21.05
2023-05-25T11:18:03.212Z,21.74
2023-05-25T11:19:39.471Z,22.15
2023-05-25T11:21:14.759Z,22.16
2023-05-25T11:22:37.723Z,21.75
2023-05-25T11:24:03.330Z,21.84
2023-05-25T11:25:40.445Z,22.01
2023-05-25T11:27:05.985Z,22.19
2023-05-25T11:28:32.471Z,22.38
2023-05-25T11:29:57.678Z,22.50
2023-05-25T11:31:23.331Z,22.55
2023-05-25T11:32:50.645Z,23.03
2023-05-25T11:34:14.185Z,23.43
2023-05-25T11:35:38.827Z,23.47
2023-05-25T11:37:03.758Z,23.52
2023-05-25T11:38:27.432Z,22.44
2023-05-25T11:39:51.574Z,22.64
2023-05-25T11:41:17.101Z,23.00
2023-05-25T11:42:42.553Z,22.79
2023-05-25T11:44:06.982Z,21.99
2023-05-25T11:45:30.326Z,21.94
2023-05-25T11:46:54.629Z,22.08
2023-05-25T11:48:18.290Z,22.10
2023-05-25T11:49:44.186Z,22.14
2023-05-25T11:51:07.431Z,22.46
2023-05-25T11:52:31.557Z,21.31
2023-05-25T11:53:54.814Z,20.28
2023-05-25T11:55:17.693Z,20.06
2023-05-25T11:56:40.609Z,19.35
2023-05-25T11:58:03.548Z,19.22
2023-05-25T11:59:28.668Z,19.49
2023-05-25T12:00:52.767Z,19.92
2023-05-25T12:02:15.611Z,19.90
2023-05-25T12:03:38.583Z,20.67
2023-05-25T12:05:02.434Z,20.63
2023-05-25T12:06:27.537Z,21.11
2023-05-25T12:07:51.959Z,21.70
2023-05-25T12:09:14.804Z,21.88
2023-05-25T12:10:50.371Z,21.52
2023-05-25T12:12:13.409Z,20.83
2023-05-25T12:13:36.664Z,21.36
2023-05-25T12:14:59.564Z,21.47
2023-05-25T12:16:22.729Z,22.25
2023-05-25T12:17:46.781Z,22.15
2023-05-25T12:19:11.213Z,21.85
2023-05-25T12:20:34.182Z,21.38
2023-05-25T12:21:57.382Z,21.10
2023-05-25T12:23:21.716Z,21.66
2023-05-25T12:24:44.600Z,22.45
2023-05-25T12:26:10.770Z,22.28
2023-05-25T12:27:33.642Z,22.06
2023-05-25T12:29:00.646Z,22.48
2023-05-25T12:30:29.293Z,22.23
2023-05-25T12:31:52.572Z,22.66
2023-05-25T12:33:16.037Z,23.39
2023-05-25T12:34:39.070Z,23.20
2023-05-25T12:36:01.897Z,23.49
2023-05-25T12:37:24.759Z,23.61
2023-05-25T12:39:00.577Z,24.28
2023-05-25T12:40:24.663Z,24.59
2023-05-25T12:41:51.257Z,24.93
2023-05-25T12:43:17.617Z,24.74
2023-05-25T12:44:41.501Z,24.56
2023-05-25T12:46:04.413Z,23.88
2023-05-25T12:47:30.284Z,24.00
2023-05-25T12:48:52.237Z,24.17
2023-05-25T12:50:16.332Z,24.35
2023-05-25T12:51:39.649Z,24.27
2023-05-25T12:53:03.534Z,24.49
2023-05-25T12:54:44.006Z,24.86
2023-05-25T12:56:12.608Z,24.16
2023-05-25T12:57:36.255Z,23.56
2023-05-25T12:59:16.716Z,22.86
2023-05-25T13:00:41.193Z,23.68
2023-05-25T13:02:04.747Z,24.21
2023-05-25T13:03:27.906Z,24.54
2023-05-25T13:04:50.832Z,25.00
2023-05-25T13:06:13.666Z,24.57
2023-05-25T13:07:36.454Z,24.44
2023-05-25T13:08:59.249Z,24.44
2023-05-25T13:10:24.488Z,24.48
2023-05-25T13:11:47.310Z,24.38
2023-05-25T13:13:13.112Z,23.97
2023-05-25T13:14:36.055Z,23.77
2023-05-25T13:15:59.191Z,24.12
2023-05-25T13:17:22.204Z,24.34
2023-05-25T13:18:45.179Z,23.99
2023-05-25T13:20:08.730Z,24.24
2023-05-25T13:21:31.558Z,23.75
2023-05-25T13:22:56.350Z,24.07
2023-05-25T13:24:20.497Z,24.47
2023-05-25T13:25:45.108Z,24.65
2023-05-25T13:27:07.913Z,24.90
2023-05-25T13:28:31.046Z,24.88
2023-05-25T13:29:53.877Z,24.51
2023-05-25T13:31:15.767Z,23.70
2023-05-25T13:32:38.731Z,24.02
2023-05-25T13:34:01.611Z,24.25
2023-05-25T13:35:37.762Z,23.75
2023-05-25T13:37:01.381Z,22.55
2023-05-25T13:38:24.195Z,22.65
2023-05-25T13:39:47.091Z,22.35
2023-05-25T13:41:11.415Z,22.63
2023-05-25T13:42:34.241Z,23.18
2023-05-25T13:43:57.271Z,23.74
2023-05-25T13:45:20.103Z,24.22
2023-05-25T13:46:42.978Z,24.57
2023-05-25T13:48:06.008Z,24.54
2023-05-25T13:49:28.995Z,24.77
2023-05-25T13:50:52.056Z,24.76
2023-05-25T13:52:15.014Z,23.50
2023-05-25T13:53:37.826Z,23.73
2023-05-25T13:55:00.850Z,23.22
2023-05-25T13:56:25.059Z,23.54
2023-05-25T13:57:47.940Z,24.10
2023-05-25T13:59:11.271Z,24.44
2023-05-25T14:00:33.405Z,24.64
2023-05-25T14:01:56.490Z,24.82
2023-05-25T14:03:19.564Z,24.09
2023-05-25T14:04:42.506Z,23.30
2023-05-25T14:06:04.683Z,23.34
2023-05-25T14:07:27.503Z,23.76
2023-05-25T14:08:50.334Z,24.23
2023-05-25T14:10:12.492Z,24.54
2023-05-25T14:11:36.766Z,24.47
2023-05-25T14:12:58.714Z,23.36
2023-05-25T14:14:31.518Z,23.33
2023-05-25T14:15:54.704Z,23.23
2023-05-25T14:17:17.529Z,23.54
2023-05-25T14:18:40.369Z,24.04
2023-05-25T14:20:04.309Z,24.36
2023-05-25T14:21:27.474Z,23.72
2023-05-25T14:22:49.370Z,23.23
2023-05-25T14:24:12.254Z,23.51
2023-05-25T14:25:34.159Z,24.02
2023-05-25T14:26:58.296Z,23.49
2023-05-25T14:28:21.199Z,22.84
2023-05-25T14:29:44.870Z,23.30
2023-05-25T14:31:07.827Z,23.57
2023-05-25T14:32:30.752Z,23.60
2023-05-25T14:33:53.826Z,23.79
2023-05-25T14:35:16.739Z,23.78
2023-05-25T14:36:39.649Z,23.90
2023-05-25T14:38:02.471Z,24.33
2023-05-25T14:39:25.321Z,24.62
2023-05-25T14:40:48.201Z,24.78
2023-05-25T14:42:11.455Z,24.77
2023-05-25T14:43:34.940Z,24.36
2023-05-25T14:44:57.932Z,24.23
2023-05-25T14:46:20.858Z,24.03
2023-05-25T14:47:43.875Z,24.08
2023-05-25T14:49:05.857Z,24.16
2023-05-25T14:50:30.353Z,23.67
2023-05-25T14:51:54.029Z,23.65
2023-05-25T14:53:16.967Z,23.73
2023-05-25T14:54:44.619Z,23.95
2023-05-25T14:56:08.974Z,24.13
2023-05-25T14:57:34.571Z,24.10
2023-05-25T14:58:57.416Z,24.33
2023-05-25T15:00:20.615Z,24.52
2023-05-25T15:01:44.899Z,23.58
2023-05-25T15:03:07.833Z,23.26
2023-05-25T15:04:31.642Z,23.60
2023-05-25T15:05:54.740Z,23.34
2023-05-25T15:07:16.685Z,23.70
2023-05-25T15:08:40.376Z,23.76
2023-05-25T15:10:03.221Z,24.13
2023-05-25T15:11:26.869Z,24.13
2023-05-25T15:12:51.066Z,24.48
2023-05-25T15:14:13.911Z,24.09
2023-05-25T15:15:36.799Z,24.05
2023-05-25T15:16:59.646Z,24.32
2023-05-25T15:18:22.548Z,24.55
2023-05-25T15:19:44.465Z,24.95
2023-05-25T15:21:07.319Z,24.93
2023-05-25T15:22:30.182Z,24.86
2023-05-25T15:23:52.044Z,24.91
2023-05-25T15:25:19.002Z,24.96
2023-05-25T15:26:47.547Z,25.09
2023-05-25T15:28:11.976Z,24.79
2023-05-25T15:29:34.807Z,24.93
2023-05-25T15:30:59.080Z,24.70
2023-05-25T15:32:23.661Z,24.55
2023-05-25T15:33:54.208Z,24.20
2023-05-25T15:35:19.476Z,23.61
2023-05-25T15:36:42.385Z,23.46
2023-05-25T15:38:05.288Z,23.47
2023-05-25T15:39:28.159Z,23.85
2023-05-25T15:40:50.965Z,23.81
2023-05-25T15:42:13.795Z,23.72
2023-05-25T15:43:38.033Z,23.33
2023-05-25T15:45:00.820Z,23.50
2023-05-25T15:46:22.844Z,22.70
2023-05-25T15:47:45.900Z,22.99
2023-05-25T15:49:11.188Z,23.40
2023-05-25T15:50:34.261Z,23.38
2023-05-25T15:51:57.146Z,23.49
2023-05-25T15:53:19.090Z,23.32
2023-05-25T15:54:41.916Z,22.90
2023-05-25T15:56:04.820Z,23.12
2023-05-25T15:57:27.617Z,23.01
2023-05-25T15:58:52.673Z,23.00
2023-05-25T16:00:17.421Z,23.00
2023-05-25T16:01:40.356Z,22.82
2023-05-25T16:03:03.508Z,22.54
2023-05-25T16:04:26.369Z,22.58
2023-05-25T16:05:49.381Z,22.32
2023-05-25T16:07:14.121Z,22.59
2023-05-25T16:08:36.072Z,22.34
2023-05-25T16:09:58.928Z,22.51
2023-05-25T16:11:20.856Z,22.60
2023-05-25T16:12:43.716Z,22.42
2023-05-25T16:14:07.954Z,22.54
2023-05-25T16:15:29.857Z,22.59
2023-05-25T16:16:52.795Z,22.67
2023-05-25T16:18:16.653Z,22.47
2023-05-25T16:19:39.565Z,22.28
2023-05-25T16:21:02.395Z,22.55
2023-05-25T16:22:25.218Z,22.26
2023-05-25T16:23:48.066Z,22.21
2023-05-25T16:25:11.427Z,22.21
2023-05-25T16:26:34.676Z,22.46
2023-05-25T16:27:56.628Z,22.38
2023-05-25T16:29:20.785Z,22.36
2023-05-25T16:30:42.806Z,22.09
2023-05-25T16:32:06.671Z,21.51
2023-05-25T16:33:28.641Z,21.50
2023-05-25T16:34:51.497Z,21.44
2023-05-25T16:36:14.170Z,21.52
2023-05-25T16:37:37.035Z,21.65
2023-05-25T16:38:59.855Z,22.04
2023-05-25T16:40:21.771Z,21.90
2023-05-25T16:41:44.652Z,22.16
2023-05-25T16:43:07.504Z,21.88
2023-05-25T16:44:31.620Z,21.62
2023-05-25T16:45:54.484Z,21.83
2023-05-25T16:47:17.565Z,22.02
2023-05-25T16:48:39.531Z,22.04
2023-05-25T16:50:02.327Z,22.16
2023-05-25T16:51:24.240Z,22.29
2023-05-25T16:52:47.079Z,21.29
2023-05-25T16:54:09.984Z,21.27
2023-05-25T16:55:33.510Z,21.19
2023-05-25T16:56:56.348Z,20.69
2023-05-25T16:58:19.177Z,21.11
2023-05-25T16:59:43.374Z,21.05
2023-05-25T17:01:06.318Z,21.00
2023-05-25T17:02:28.296Z,20.85
2023-05-25T17:03:51.343Z,20.74
2023-05-25T17:05:13.326Z,20.73
2023-05-25T17:06:36.643Z,20.49
2023-05-25T17:07:59.485Z,20.51
2023-05-25T17:09:25.026Z,20.80
2023-05-25T17:10:48.941Z,21.25
2023-05-25T17:12:11.870Z,21.27
2023-05-25T17:13:33.856Z,21.31
2023-05-25T17:14:58.041Z,21.38
2023-05-25T17:16:20.961Z,21.34
2023-05-25T17:17:43.220Z,21.39
2023-05-25T17:19:06.063Z,21.56
2023-05-25T17:20:28.918Z,21.39
2023-05-25T17:21:51.767Z,21.29
2023-05-25T17:23:16.739Z,21.28
2023-05-25T17:24:39.642Z,21.58
2023-05-25T17:26:02.536Z,21.62
2023-05-25T17:27:24.414Z,21.64
2023-05-25T17:28:47.277Z,21.29
2023-05-25T17:30:13.599Z,21.09
2023-05-25T17:31:36.752Z,20.71
2023-05-25T17:33:01.817Z,21.04
2023-05-25T17:34:24.835Z,21.07
2023-05-25T17:35:47.679Z,21.12
2023-05-25T17:37:10.529Z,21.23
2023-05-25T17:38:35.080Z,20.99
2023-05-25T17:39:57.906Z,21.04
2023-05-25T17:41:20.901Z,21.12
2023-05-25T17:42:45.514Z,20.76
2023-05-25T17:44:08.649Z,20.81
2023-05-25T17:45:32.855Z,20.94
2023-05-25T17:46:55.765Z,21.14
2023-05-25T17:48:19.670Z,21.07
2023-05-25T17:49:42.507Z,21.11
2023-05-25T17:51:06.011Z,20.97
2023-05-25T17:52:30.525Z,20.89
2023-05-25T17:53:53.385Z,20.86
2023-05-25T17:55:16.259Z,20.67
2023-05-25T17:56:39.150Z,20.41
2023-05-25T17:58:01.988Z,20.48
2023-05-25T17:59:23.915Z,20.67
2023-05-25T18:00:49.024Z,20.75
2023-05-25T18:02:12.072Z,20.69
2023-05-25T18:03:35.145Z,20.40
2023-05-25T18:04:58.076Z,20.44
2023-05-25T18:06:20.101Z,20.02
2023-05-25T18:07:42.899Z,19.44
2023-05-25T18:09:04.823Z,19.51
2023-05-25T18:10:27.703Z,19.66
2023-05-25T18:11:52.387Z,19.28
2023-05-25T18:13:16.778Z,19.13
2023-05-25T18:14:39.798Z,19.47
2023-05-25T18:16:03.985Z,19.56
2023-05-25T18:17:26.215Z,19.64